Latest Weather Observations for Coolangatta

IDN60801

Issued at 7:52 am EST Tuesday 21 August 2018 (issued every 10 minutes, with the page automatically refreshed every 10 minutes)

About weather observations | Map of weather stations | Latest weather observations for NSW | Other Formats
Station Details ID: 040717 Name: COOLANGATTA Lat: -28.17 Lon: 153.51 Height: 4.0 m
Data from the previous 72 hours. | See also: Recent months at Coolangatta
Date/Time
EST
Temp
°C
App
Temp
°C
Dew
Point
°C
Rel
Hum
%
Delta-T
°C
Wind Press
QNH
hPa
Press
MSL
hPa
Rain since
9am
mm
Dir  Spd
km/h
Gust
km/h
Spd
kts
Gust
kts
21/07:30am 8.4 6.4 4.4 76 1.8 SW 4 7 2 4 1018.6 1018.6 0.0
21/07:00am 4.7 2.8 2.9 88 0.7 SW 2 9 1 5 1018.6 1018.6 0.0
21/06:30am 4.7 2.0 2.9 88 0.7 SW 6 9 3 5 1018.4 1018.4 0.0
21/06:00am 4.5 1.7 3.0 90 0.6 SW 7 11 4 6 1018.2 1018.2 0.0
21/05:30am 4.7 1.7 4.0 95 0.3 SW 9 11 5 6 1018.0 1018.0 0.0
21/05:00am 3.9 -0.1 2.9 93 0.4 SW 13 13 7 7 1017.8 1017.8 0.0
21/04:30am 3.3 1.6 2.1 92 0.5 CALM 0 0 0 0 1017.8 1017.8 0.0
21/04:00am 4.6 2.4 3.6 93 0.4 SW 4 7 2 4 1018.0 1018.0 0.0
21/03:30am 4.3 2.1 3.1 92 0.5 SW 4 7 2 4 1017.9 1017.9 0.0
21/03:00am 5.2 2.8 4.2 93 0.4 SW 6 7 3 4 1018.1 1018.1 0.0
21/02:30am 5.5 3.2 4.6 94 0.4 SW 6 9 3 5 1018.2 1018.2 0.0
21/02:00am 4.8 2.3 3.6 92 0.5 SW 6 7 3 4 1018.4 1018.4 0.0
21/01:30am 5.2 3.8 3.5 89 0.7 CALM 0 0 0 0 1018.7 1018.7 0.0
21/01:00am 6.8 5.7 5.1 89 0.7 CALM 0 6 0 3 1019.0 1019.0 0.0
21/12:30am 6.7 5.1 4.5 86 1.0 SW 2 7 1 4 1019.0 1019.0 0.0
21/12:00am 7.1 5.9 4.6 84 1.1 CALM 0 6 0 3 1019.2 1019.2 0.0
 
Date/Time
EST
Temp
°C
App
Temp
°C
Dew
Point
°C
Rel
Hum
%
Delta-T
°C
Wind Press
QNH
hPa
Press
MSL
hPa
Rain since
9am
mm
Dir  Spd
km/h
Gust
km/h
Spd
kts
Gust
kts
20/11:30pm 7.9 6.4 5.2 83 1.2 SW 2 6 1 3 1019.2 1019.2 0.0
20/11:00pm 7.7 5.3 4.3 79 1.5 SW 6 7 3 4 1019.3 1019.3 0.0
20/10:30pm 7.8 4.1 4.2 78 1.6 WSW 13 15 7 8 1019.3 1019.3 0.0
20/10:00pm 8.3 4.9 4.1 75 1.8 WSW 11 13 6 7 1019.3 1019.3 0.0
20/09:30pm 8.8 4.7 4.4 74 1.9 WSW 15 17 8 9 1019.1 1019.1 0.0
20/09:00pm 9.1 4.7 4.5 73 2.0 WSW 17 19 9 10 1019.1 1019.1 0.0
20/08:30pm 10.2 6.6 5.0 70 2.3 WSW 13 17 7 9 1018.9 1018.9 0.0
20/08:00pm 10.0 6.4 4.8 70 2.3 WSW 13 15 7 8 1018.5 1018.5 0.0
20/07:30pm 10.4 6.5 5.2 70 2.4 WSW 15 17 8 9 1018.3 1018.3 0.0
20/07:00pm 10.7 7.3 4.0 63 3.0 WSW 11 15 6 8 1017.9 1017.9 0.0
20/06:30pm 12.6 9.6 4.1 56 3.8 SSW 9 13 5 7 1017.6 1017.6 0.0
20/06:00pm 13.0 10.3 3.7 53 4.2 S 7 11 4 6 1017.3 1017.3 0.0
20/05:30pm 14.2 11.2 3.9 50 4.7 SSE 9 15 5 8 1017.0 1017.0 0.0
20/05:00pm 15.5 10.8 3.0 43 5.6 SSE 17 24 9 13 1016.9 1016.9 0.0
20/04:30pm 16.3 11.1 2.3 39 6.3 SE 19 28 10 15 1016.5 1016.5 0.0
20/04:00pm 17.2 11.2 1.2 34 7.1 SE 22 30 12 16 1016.3 1016.3 0.0
20/03:30pm 18.2 13.7 2.1 34 7.3 SSE 15 28 8 15 1016.0 1016.0 0.0
20/03:00pm 19.6 14.3 -7.7 15 10.3 SW 13 20 7 11 1016.0 1016.0 0.0
20/02:30pm 19.5 12.9 -8.7 14 10.4 SSW 19 28 10 15 1016.0 1016.0 0.0
20/02:00pm 18.9 11.7 -9.1 14 10.1 SSW 22 33 12 18 1016.1 1016.1 0.0
20/01:30pm 19.1 12.6 -8.1 15 10.1 SW 19 32 10 17 1016.1 1016.1 0.0
20/01:00pm 18.5 11.3 -9.5 14 10.0 SW 22 35 12 19 1016.1 1016.1 0.0
20/12:30pm 18.8 12.1 -7.5 16 9.8 SW 20 33 11 18 1016.2 1016.2 0.0
20/12:00pm 18.2 10.4 -7.2 17 9.5 SSW 26 46 14 25 1016.6 1016.6 0.0
20/11:58am 18.1 9.9 -7.3 17 9.5 SSW 28 46 15 25 1016.6 1016.6 0.0
20/11:30am 17.4 10.0 -7.9 17 9.2 SSW 24 35 13 19 1017.0 1017.0 0.0
20/11:00am 17.4 10.4 -7.1 18 9.1 SSW 22 35 12 19 1017.5 1017.5 0.0
20/10:30am 16.6 10.5 -7.8 18 8.9 SSW 17 26 9 14 1017.6 1017.6 0.0
20/10:00am 16.2 9.1 -8.1 18 8.7 SSW 22 35 12 19 1017.9 1017.9 0.0
20/09:30am 15.8 9.3 -8.4 18 8.6 SSW 19 35 10 19 1018.0 1018.0 0.0
20/09:00am 15.4 9.0 -6.8 21 8.1 S 19 30 10 16 1017.8 1017.8 0.0
20/08:30am 14.1 9.7 -6.1 24 7.4 SW 9 15 5 8 1017.7 1017.7 0.0
20/08:00am 13.2 8.8 -5.4 27 6.8 SSW 9 15 5 8 1017.7 1017.7 0.0
20/07:30am 12.5 8.8 -4.6 30 6.3 W 6 11 3 6 1017.6 1017.6 0.0
20/07:00am 10.9 8.1 -3.6 36 5.4 SSW 2 6 1 3 1017.5 1017.5 0.0
20/06:30am 7.9 4.3 -3.6 44 4.1 WSW 6 13 3 7 1016.8 1016.8 0.0
20/06:00am 10.1 5.8 -5.0 34 5.4 W 9 20 5 11 1016.3 1016.3 0.0
20/05:30am 10.6 6.4 -4.2 35 5.4 W 9 20 5 11 1016.0 1016.0 0.0
20/05:00am 11.1 6.8 -4.5 33 5.7 SSW 9 19 5 10 1015.8 1015.8 0.0
20/04:30am 11.6 6.2 -4.5 32 5.9 SW 15 26 8 14 1015.0 1015.0 0.0
20/04:00am 11.8 6.4 -4.8 31 6.1 SSW 15 26 8 14 1015.1 1015.1 0.0
20/03:30am 12.5 6.1 -4.6 30 6.3 SSW 20 33 11 18 1014.8 1014.8 0.0
20/03:00am 12.6 4.8 -4.1 31 6.3 SW 28 43 15 23 1014.3 1014.3 0.0
20/02:30am 13.2 5.3 -4.4 29 6.6 SW 28 43 15 23 1014.4 1014.4 0.0
20/02:00am 13.3 5.5 -3.9 30 6.5 SW 28 43 15 23 1014.8 1014.8 0.0
20/01:30am 13.6 7.0 -3.6 30 6.6 WSW 22 39 12 21 1015.0 1015.0 0.0
20/01:00am 13.6 7.3 -3.6 30 6.6 WSW 20 32 11 17 1015.3 1015.3 0.0
20/12:30am 13.8 7.1 -4.4 28 6.9 WSW 22 39 12 21 1015.2 1015.2 0.0
20/12:00am 14.1 7.5 -3.2 30 6.7 WSW 22 32 12 17 1015.3 1015.3 0.0
 
Date/Time
EST
Temp
°C
App
Temp
°C
Dew
Point
°C
Rel
Hum
%
Delta-T
°C
Wind Press
QNH
hPa
Press
MSL
hPa
Rain since
9am
mm
Dir  Spd
km/h
Gust
km/h
Spd
kts
Gust
kts
19/11:30pm 14.4 7.4 -3.4 29 6.9 WSW 24 43 13 23 1015.3 1015.3 0.0
19/11:12pm 14.6 6.8 -3.7 28 7.1 WSW 28 48 15 26 1015.4 1015.4 0.0
19/11:00pm 14.6 8.6 -3.2 29 7.0 WSW 19 35 10 19 1015.6 1015.6 0.0
19/10:30pm 14.3 9.0 -3.9 28 7.0 WSW 15 24 8 13 1015.7 1015.7 0.0
19/10:00pm 14.6 8.8 -4.7 26 7.3 W 17 30 9 16 1015.9 1015.9 0.0
19/09:30pm 14.6 9.9 -4.7 26 7.3 WSW 11 20 6 11 1016.0 1016.0 0.0
19/09:00pm 15.5 9.6 -5.5 23 7.9 WSW 17 32 9 17 1015.8 1015.8 0.0
19/08:30pm 14.1 9.7 -6.1 24 7.4 SW 9 17 5 9 1015.5 1015.5 0.0
19/08:00pm 12.9 9.1 -3.4 32 6.2 SW 7 9 4 5 1015.1 1015.1 0.0
19/07:30pm 12.6 8.8 -5.9 27 6.7 WSW 6 7 3 4 1014.7 1014.7 0.0
19/07:00pm 16.3 11.9 -5.4 22 8.3 WSW 9 15 5 8 1014.4 1014.4 0.0
19/06:30pm 16.5 11.8 -4.7 23 8.2 WSW 11 17 6 9 1013.8 1013.8 0.0
19/06:00pm 17.9 12.0 -5.3 20 9.0 WSW 17 24 9 13 1013.2 1013.2 0.0
19/05:30pm 18.2 13.6 -4.5 21 9.0 WSW 11 19 6 10 1013.0 1013.0 0.0
19/05:00pm 19.9 13.4 -7.5 15 10.4 SW 19 28 10 15 1012.4 1012.4 0.0
19/04:30pm 20.7 14.4 -6.0 16 10.5 SW 19 26 10 14 1012.0 1012.0 0.0
19/04:00pm 21.4 15.1 -6.3 15 10.9 SW 19 28 10 15 1011.6 1011.6 0.0
19/03:30pm 22.2 15.4 -5.6 15 11.2 SW 22 35 12 19 1011.4 1011.4 0.0
19/03:00pm 22.6 15.4 -5.3 15 11.4 SW 24 39 13 21 1011.3 1011.3 0.0
19/02:30pm 23.2 16.7 -5.7 14 11.7 SW 20 28 11 15 1011.4 1011.4 0.0
19/02:00pm 23.2 16.5 -4.0 16 11.4 S 22 32 12 17 1011.3 1011.3 0.0
19/01:30pm 23.0 16.6 -5.0 15 11.5 SW 20 32 11 17 1011.3 1011.3 0.0
19/01:00pm 23.3 16.6 -3.9 16 11.5 SW 22 35 12 19 1011.4 1011.4 0.0
19/12:30pm 23.3 17.3 -3.1 17 11.3 SSW 19 26 10 14 1011.9 1011.9 0.0
19/12:00pm 23.3 16.8 -2.3 18 11.1 SW 22 35 12 19 1012.3 1012.3 0.0
19/11:30am 22.9 16.9 -1.9 19 10.8 SSW 20 30 11 16 1012.7 1012.7 0.0
19/11:00am 22.9 16.9 -1.2 20 10.7 SSE 20 41 11 22 1012.8 1012.8 0.0
19/10:30am 23.0 17.6 -1.1 20 10.7 W 17 24 9 13 1013.2 1013.2 0.0
19/10:00am 22.2 15.9 -1.1 21 10.3 WNW 22 33 12 18 1013.6 1013.6 0.0
19/09:30am 22.2 16.5 0.7 24 9.8 WNW 20 32 11 17 1013.8 1013.8 0.0
19/09:00am 21.1 18.1 4.2 33 8.2 WNW 9 17 5 9 1014.1 1014.1 0.0
19/08:30am 18.4 17.1 5.9 44 6.1 SE 2 9 1 5 1014.3 1014.3 0.0
19/08:00am 14.8 13.6 8.1 64 3.3 SSE 4 7 2 4 1014.6 1014.6 0.0
19/07:30am 11.6 10.5 8.6 82 1.5 S 4 9 2 5 1014.4 1014.4 0.0
19/07:00am 7.8 6.1 6.1 89 0.8 WSW 4 11 2 6 1014.2 1014.2 0.0
19/06:30am 5.2 2.4 2.9 85 0.9 WSW 7 9 4 5 1014.0 1014.0 0.0
19/06:00am 5.3 2.7 3.2 86 0.9 WSW 6 7 3 4 1013.7 1013.7 0.0
19/05:30am 6.0 3.7 4.8 92 0.5 SW 6 9 3 5 1013.4 1013.4 0.0
19/05:00am 4.7 2.3 2.1 83 1.0 WSW 4 7 2 4 1013.5 1013.5 0.0
19/04:30am 6.5 4.1 5.3 92 0.5 WSW 7 13 4 7 1013.2 1013.2 0.0
19/04:00am 5.9 3.4 4.7 92 0.5 WSW 7 11 4 6 1013.0 1013.0 0.0
19/03:30am 6.3 4.1 5.3 93 0.4 WNW 6 9 3 5 1013.1 1013.1 0.0
19/03:00am 6.0 3.5 5.0 93 0.4 SW 7 11 4 6 1013.1 1013.1 0.0
19/02:30am 5.5 4.2 4.2 91 0.6 CALM 0 0 0 0 1013.3 1013.3 0.0
19/02:00am 7.1 5.0 5.9 92 0.5 SW 6 7 3 4 1013.4 1013.4 0.0
19/01:30am 7.6 6.0 6.2 91 0.6 SW 4 7 2 4 1013.6 1013.6 0.0
19/01:00am 7.6 5.5 5.7 88 0.9 SSW 6 7 3 4 1013.9 1013.9 0.0
19/12:30am 9.5 7.8 7.6 88 0.9 SW 6 9 3 5 1014.1 1014.1 0.0
19/12:00am 9.0 6.9 8.1 94 0.4 WSW 9 13 5 7 1014.2 1014.2 0.0
 
Date/Time
EST
Temp
°C
App
Temp
°C
Dew
Point
°C
Rel
Hum
%
Delta-T
°C
Wind Press
QNH
hPa
Press
MSL
hPa
Rain since
9am
mm
Dir  Spd
km/h
Gust
km/h
Spd
kts
Gust
kts
18/11:30pm 7.5 6.2 5.8 89 0.8 WSW 2 7 1 4 1014.1 1014.1 0.0
18/11:00pm 8.7 6.9 7.0 89 0.8 WSW 6 7 3 4 1014.2 1014.2 0.0
18/10:30pm 9.6 9.1 7.7 88 0.9 CALM 0 0 0 0 1014.2 1014.2 0.0
18/10:00pm 11.1 10.3 8.3 83 1.4 SW 2 6 1 3 1014.1 1014.1 0.0
18/09:30pm 11.8 10.5 10.0 89 0.9 WSW 7 11 4 6 1014.0 1014.0 0.0
18/09:00pm 10.9 9.9 8.8 87 1.0 WSW 4 9 2 5 1014.0 1014.0 0.0
18/08:30pm 12.7 11.6 10.6 87 1.1 WSW 7 11 4 6 1014.0 1014.0 0.0
18/08:00pm 12.6 11.3 10.0 84 1.3 W 7 11 4 6 1013.8 1013.8 0.0
18/07:30pm 13.8 12.9 10.6 81 1.7 SSW 6 7 3 4 1013.6 1013.6 0.0
18/07:00pm 15.3 14.7 11.7 79 1.9 SW 6 9 3 5 1013.2 1013.2 0.0
18/06:30pm 15.8 14.3 11.8 77 2.2 WSW 11 13 6 7 1012.8 1012.8 0.0
18/06:00pm 16.9 16.5 11.2 69 3.1 W 4 9 2 5 1012.5 1012.5 0.0
18/05:30pm 19.7 17.7 12.7 64 3.9 NNE 15 19 8 10 1012.1 1012.1 0.0
18/05:00pm 20.6 18.8 12.1 58 4.8 NE 13 22 7 12 1011.9 1011.9 0.0
18/04:30pm 21.0 18.7 11.6 55 5.2 NNE 15 22 8 12 1011.6 1011.6 0.0
18/04:00pm 21.3 18.7 11.9 55 5.3 NE 17 20 9 11 1011.6 1011.6 0.0
18/03:30pm 21.5 18.1 10.6 50 6.0 NE 19 26 10 14 1011.7 1011.7 0.0
18/03:00pm 21.6 17.2 8.8 44 6.8 NE 22 28 12 15 1011.8 1011.8 0.0
18/02:30pm 22.6 17.9 7.6 38 7.8 NNE 22 30 12 16 1012.3 1012.3 0.0
18/02:00pm 21.9 18.0 8.8 43 7.0 NE 19 24 10 13 1012.4 1012.4 0.0
18/01:30pm 21.9 18.3 10.7 49 6.1 NNE 20 26 11 14 1012.9 1012.9 0.0
18/01:00pm 21.8 17.9 9.3 45 6.7 NNE 20 26 11 14 1013.3 1013.3 0.0
18/12:30pm 21.8 18.1 10.3 48 6.3 NNE 20 26 11 14 1013.8 1013.8 0.0
18/12:00pm 21.2 17.6 10.4 50 5.9 NE 20 24 11 13 1014.5 1014.5 0.0
18/11:30am 21.2 16.7 4.3 33 8.2 NE 17 22 9 12 1015.0 1015.0 0.0
18/11:00am 21.6 18.1 5.5 35 8.0 NE 13 17 7 9 1015.6 1015.6 0.0
18/10:30am 20.7 17.3 3.9 33 8.1 NNE 11 17 6 9 1016.3 1016.3 0.0
18/10:00am 20.5 17.5 6.1 39 7.2 N 11 15 6 8 1016.6 1016.6 0.0
18/09:30am 20.0 17.1 6.7 42 6.7 NNE 11 13 6 7 1017.1 1017.1 0.0
18/09:00am 19.5 16.9 5.9 41 6.7 N 9 13 5 7 1017.3 1017.3 0.0
18/08:30am 17.9 17.7 10.5 62 4.0 N 2 9 1 5 1017.4 1017.4 0.0
18/08:00am 14.6 14.4 10.4 76 2.2 W 2 7 1 4 1017.1 1017.1 0.0

Other Formats:

Comma delimited format used in spreadsheet applications
http://www.bom.gov.au/fwo/IDN60801/IDN60801.94592.axf

JavaScript Object Notation format (JSON) in row-major order
http://www.bom.gov.au/fwo/IDN60801/IDN60801.94592.json